Latest Weather Observations for Banana Bank

IDQ60801

Issued at 9:05 am EST Sunday 26 October 2014 (issued every 30 minutes, with the page automatically refreshed every 10 minutes)

About weather observations | Map of weather stations | Latest weather observations for QLD | Other Formats
Station Details ID: 040925 Name: BANANA BANK NORTH BEACON Lat: -27.53 Lon: 153.33 Height: 7.0 m
Data from the previous 72 hours. | See also: Recent months for locations in Queensland
Date/Time
EST
Temp
°C
App
Temp
°C
Dew
Point
Rel
Hum
%
Delta-T
°C
Wind Press
QNH
hPa
Press
MSL
hPa
Rain
since 9 am
mm
Dir
 
Spd
km/h
Gust
km/h
Spd
kts
Gust
kts
26/09:00am - - - - - N 28 32 15 17 - - -
26/08:30am - - - - - N 28 33 15 18 - - -
26/08:00am - - - - - N 28 32 15 17 - - -
26/07:30am - - - - - N 24 30 13 16 - - -
26/07:00am - - - - - N 24 28 13 15 - - -
26/06:30am - - - - - N 22 24 12 13 - - -
26/06:00am - - - - - N 19 22 10 12 - - -
26/05:30am - - - - - N 15 19 8 10 - - -
26/05:00am - - - - - N 19 22 10 12 - - -
26/04:30am - - - - - N 15 19 8 10 - - -
26/04:00am - - - - - NNW 15 19 8 10 - - -
26/03:30am - - - - - NNW 17 20 9 11 - - -
26/03:00am - - - - - NNW 20 24 11 13 - - -
26/02:30am - - - - - NNW 24 28 13 15 - - -
26/02:00am - - - - - NNW 28 32 15 17 - - -
26/01:30am - - - - - NNW 28 35 15 19 - - -
26/01:00am - - - - - N 37 44 20 24 - - -
26/12:30am - - - - - N 37 44 20 24 - - -
26/12:00am - - - - - N 37 44 20 24 - - -
 
Date/Time
EST
Temp
°C
App
Temp
°C
Dew
Point
Rel
Hum
%
Delta-T
°C
Wind Press
QNH
hPa
Press
MSL
hPa
Rain
since 9 am
mm
Dir
 
Spd
km/h
Gust
km/h
Spd
kts
Gust
kts
25/11:30pm - - - - - N 39 46 21 25 - - -
25/11:00pm - - - - - N 37 43 20 23 - - -
25/10:30pm - - - - - N 26 33 14 18 - - -
25/10:00pm - - - - - N 22 28 12 15 - - -
25/09:30pm - - - - - NNE 19 30 10 16 - - -
25/09:00pm - - - - - NNE 17 24 9 13 - - -
25/08:30pm - - - - - NE 9 20 5 11 - - -
25/08:00pm - - - - - ENE 4 7 2 4 - - -
25/07:30pm - - - - - N 24 28 13 15 - - -
25/07:00pm - - - - - N 28 35 15 19 - - -
25/06:30pm - - - - - N 26 33 14 18 - - -
25/06:00pm - - - - - N 28 33 15 18 - - -
25/05:30pm - - - - - N 30 35 16 19 - - -
25/05:00pm - - - - - N 33 39 18 21 - - -
25/04:30pm - - - - - N 30 35 16 19 - - -
25/04:00pm - - - - - N 26 32 14 17 - - -
25/03:30pm - - - - - N 24 32 13 17 - - -
25/03:00pm - - - - - N 32 37 17 20 - - -
25/02:30pm - - - - - N 30 35 16 19 - - -
25/02:00pm - - - - - N 32 39 17 21 - - -
25/01:30pm - - - - - N 26 33 14 18 - - -
25/01:00pm - - - - - N 26 30 14 16 - - -
25/12:30pm - - - - - N 30 33 16 18 - - -
25/12:00pm - - - - - N 30 35 16 19 - - -
25/11:30am - - - - - N 30 33 16 18 - - -
25/11:00am - - - - - N 30 35 16 19 - - -
25/10:30am - - - - - N 28 33 15 18 - - -
25/10:00am - - - - - N 26 32 14 17 - - -
25/09:30am - - - - - N 22 26 12 14 - - -
25/09:00am - - - - - NNW 20 24 11 13 - - -
25/08:30am - - - - - NNW 22 26 12 14 - - -
25/08:00am - - - - - NW 26 32 14 17 - - -
25/07:30am - - - - - NW 22 28 12 15 - - -
25/07:00am - - - - - NW 22 28 12 15 - - -
25/06:30am - - - - - WNW 19 24 10 13 - - -
25/06:00am - - - - - NNW 24 28 13 15 - - -
25/05:30am - - - - - NNW 22 26 12 14 - - -
25/05:00am - - - - - NW 15 20 8 11 - - -
25/04:30am - - - - - WNW 15 19 8 10 - - -
25/04:00am - - - - - WNW 17 20 9 11 - - -
25/03:30am - - - - - WNW 13 17 7 9 - - -
25/03:00am - - - - - NNW 20 24 11 13 - - -
25/02:30am - - - - - N 20 24 11 13 - - -
25/02:00am - - - - - NNW 20 24 11 13 - - -
25/01:30am - - - - - N 24 28 13 15 - - -
25/01:00am - - - - - N 24 32 13 17 - - -
25/12:30am - - - - - N 20 26 11 14 - - -
25/12:00am - - - - - N 20 24 11 13 - - -
 
Date/Time
EST
Temp
°C
App
Temp
°C
Dew
Point
Rel
Hum
%
Delta-T
°C
Wind Press
QNH
hPa
Press
MSL
hPa
Rain
since 9 am
mm
Dir
 
Spd
km/h
Gust
km/h
Spd
kts
Gust
kts
24/11:30pm - - - - - N 22 26 12 14 - - -
24/11:00pm - - - - - N 24 28 13 15 - - -
24/10:30pm - - - - - N 24 30 13 16 - - -
24/10:00pm - - - - - N 24 30 13 16 - - -
24/09:30pm - - - - - N 24 30 13 16 - - -
24/09:00pm - - - - - N 22 26 12 14 - - -
24/08:30pm - - - - - N 22 28 12 15 - - -
24/08:00pm - - - - - N 24 30 13 16 - - -
24/07:30pm - - - - - N 22 28 12 15 - - -
24/07:00pm - - - - - N 22 28 12 15 - - -
24/06:30pm - - - - - N 24 28 13 15 - - -
24/06:00pm - - - - - NNE 22 32 12 17 - - -
24/05:30pm - - - - - NNE 24 32 13 17 - - -
24/05:00pm - - - - - NNE 26 32 14 17 - - -
24/04:30pm - - - - - NNE 26 32 14 17 - - -
24/04:00pm - - - - - NNE 26 32 14 17 - - -
24/03:30pm - - - - - N 24 32 13 17 - - -
24/03:00pm - - - - - N 28 35 15 19 - - -
24/02:30pm - - - - - N 26 33 14 18 - - -
24/02:00pm - - - - - NNE 24 30 13 16 - - -
24/01:30pm - - - - - N 24 30 13 16 - - -
24/01:00pm - - - - - N 20 26 11 14 - - -
24/12:30pm - - - - - N 20 24 11 13 - - -
24/12:00pm - - - - - N 19 20 10 11 - - -
24/11:30am - - - - - N 15 19 8 10 - - -
24/11:00am - - - - - N 15 19 8 10 - - -
24/10:30am - - - - - N 11 13 6 7 - - -
24/10:00am - - - - - NW 11 13 6 7 - - -
24/09:30am - - - - - NW 13 15 7 8 - - -
24/09:00am - - - - - NW 9 13 5 7 - - -
24/08:30am - - - - - NW 9 11 5 6 - - -
24/08:00am - - - - - NW 7 9 4 5 - - -
24/07:30am - - - - - NW 7 9 4 5 - - -
24/07:00am - - - - - WNW 7 9 4 5 - - -
24/06:30am - - - - - W 6 9 3 5 - - -
24/06:00am - - - - - W 7 9 4 5 - - -
24/05:30am - - - - - N 13 17 7 9 - - -
24/05:00am - - - - - N 13 17 7 9 - - -
24/04:30am - - - - - N 11 13 6 7 - - -
24/04:00am - - - - - N 13 17 7 9 - - -
24/03:30am - - - - - NNE 15 19 8 10 - - -
24/03:00am - - - - - N 17 19 9 10 - - -
24/02:30am - - - - - N 17 19 9 10 - - -
24/02:00am - - - - - N 17 22 9 12 - - -
24/01:30am - - - - - N 19 22 10 12 - - -
24/01:00am - - - - - N 19 24 10 13 - - -
24/12:30am - - - - - N 20 24 11 13 - - -
24/12:00am - - - - - N 17 20 9 11 - - -
 
Date/Time
EST
Temp
°C
App
Temp
°C
Dew
Point
Rel
Hum
%
Delta-T
°C
Wind Press
QNH
hPa
Press
MSL
hPa
Rain
since 9 am
mm
Dir
 
Spd
km/h
Gust
km/h
Spd
kts
Gust
kts
23/11:30pm - - - - - N 19 20 10 11 - - -
23/11:00pm - - - - - NNE 13 19 7 10 - - -
23/10:30pm - - - - - N 17 20 9 11 - - -
23/10:00pm - - - - - N 20 24 11 13 - - -
23/09:30pm - - - - - NNE 11 13 6 7 - - -
23/09:00pm - - - - - NNE 7 11 4 6 - - -
23/08:30pm - - - - - NNE 11 13 6 7 - - -
23/08:00pm - - - - - NE 15 17 8 9 - - -
23/07:30pm - - - - - NNE 17 24 9 13 - - -
23/07:00pm - - - - - NNE 15 20 8 11 - - -
23/06:30pm - - - - - NNE 19 22 10 12 - - -
23/06:00pm - - - - - NNE 20 24 11 13 - - -
23/05:30pm - - - - - NNE 22 28 12 15 - - -
23/05:00pm - - - - - NNE 22 28 12 15 - - -
23/04:30pm - - - - - NNE 22 30 12 16 - - -
23/04:00pm - - - - - NNE 26 32 14 17 - - -
23/03:30pm - - - - - NNE 26 30 14 16 - - -
23/03:00pm - - - - - NNE 24 28 13 15 - - -
23/02:30pm - - - - - NNE 22 28 12 15 - - -
23/02:00pm - - - - - NNE 22 26 12 14 - - -
23/01:30pm - - - - - N 20 26 11 14 - - -
23/01:00pm - - - - - N 19 22 10 12 - - -
23/12:30pm - - - - - N 19 22 10 12 - - -
23/12:00pm - - - - - N 19 22 10 12 - - -
23/11:30am - - - - - N 13 17 7 9 - - -
23/11:00am - - - - - N 13 17 7 9 - - -
23/10:30am - - - - - N 9 11 5 6 - - -
23/10:00am - - - - - NNW 9 11 5 6 - - -
23/09:30am - - - - - NW 4 7 2 4 - - -

Other Formats:

Comma delimited format used in spreadsheet applications
http://www.bom.gov.au/fwo/IDQ60801/IDQ60801.94591.axf

JavaScript Object Notation format (JSON) in row-major order
http://www.bom.gov.au/fwo/IDQ60801/IDQ60801.94591.json